sensor_id;sensor_type;location;lat;lon;timestamp;P1;durP1;ratioP1;P2;durP2;ratioP2
51020;SDS011;38907;45.562;8.856;2023-04-24T00:03:50;7.40;;;6.00;;
51020;SDS011;38907;45.562;8.856;2023-04-24T00:08:54;9.40;;;5.82;;
51020;SDS011;38907;45.562;8.856;2023-04-24T00:13:56;9.18;;;6.07;;
51020;SDS011;38907;45.562;8.856;2023-04-24T00:18:58;7.07;;;5.30;;
51020;SDS011;38907;45.562;8.856;2023-04-24T00:24:02;12.93;;;5.57;;
51020;SDS011;38907;45.562;8.856;2023-04-24T00:29:04;5.65;;;4.32;;
51020;SDS011;38907;45.562;8.856;2023-04-24T00:34:06;7.15;;;4.70;;
51020;SDS011;38907;45.562;8.856;2023-04-24T00:39:09;6.03;;;3.63;;
51020;SDS011;38907;45.562;8.856;2023-04-24T00:44:11;3.40;;;3.05;;
51020;SDS011;38907;45.562;8.856;2023-04-24T00:49:13;5.22;;;2.88;;
51020;SDS011;38907;45.562;8.856;2023-04-24T00:54:16;4.82;;;3.28;;
51020;SDS011;38907;45.562;8.856;2023-04-24T00:59:19;6.43;;;3.08;;
51020;SDS011;38907;45.562;8.856;2023-04-24T01:04:20;11.68;;;5.03;;
51020;SDS011;38907;45.562;8.856;2023-04-24T01:09:24;5.97;;;3.10;;
51020;SDS011;38907;45.562;8.856;2023-04-24T01:14:26;2.20;;;1.90;;
51020;SDS011;38907;45.562;8.856;2023-04-24T01:19:29;1.95;;;1.73;;
51020;SDS011;38907;45.562;8.856;2023-04-24T01:24:32;3.40;;;1.85;;
51020;SDS011;38907;45.562;8.856;2023-04-24T01:34:35;3.17;;;1.70;;
51020;SDS011;38907;45.562;8.856;2023-04-24T01:39:40;2.53;;;1.70;;
51020;SDS011;38907;45.562;8.856;2023-04-24T01:44:41;3.15;;;1.40;;
51020;SDS011;38907;45.562;8.856;2023-04-24T01:49:44;1.58;;;1.30;;
51020;SDS011;38907;45.562;8.856;2023-04-24T01:54:50;1.20;;;1.10;;
51020;SDS011;38907;45.562;8.856;2023-04-24T01:59:53;1.52;;;1.30;;
51020;SDS011;38907;45.562;8.856;2023-04-24T02:04:55;2.78;;;1.45;;
51020;SDS011;38907;45.562;8.856;2023-04-24T02:09:58;1.55;;;1.40;;
51020;SDS011;38907;45.562;8.856;2023-04-24T02:15:00;1.60;;;1.10;;
51020;SDS011;38907;45.562;8.856;2023-04-24T02:20:03;1.13;;;1.02;;
51020;SDS011;38907;45.562;8.856;2023-04-24T02:25:07;1.45;;;1.10;;
51020;SDS011;38907;45.562;8.856;2023-04-24T02:30:10;1.40;;;1.25;;
51020;SDS011;38907;45.562;8.856;2023-04-24T02:35:12;1.52;;;1.40;;
51020;SDS011;38907;45.562;8.856;2023-04-24T02:40:15;1.80;;;0.98;;
51020;SDS011;38907;45.562;8.856;2023-04-24T02:50:19;3.53;;;1.30;;
51020;SDS011;38907;45.562;8.856;2023-04-24T02:55:22;1.45;;;1.15;;
51020;SDS011;38907;45.562;8.856;2023-04-24T03:00:25;1.90;;;1.08;;
51020;SDS011;38907;45.562;8.856;2023-04-24T03:05:26;2.35;;;1.17;;
51020;SDS011;38907;45.562;8.856;2023-04-24T03:10:30;1.52;;;1.10;;
51020;SDS011;38907;45.562;8.856;2023-04-24T03:20:33;1.98;;;1.15;;
51020;SDS011;38907;45.562;8.856;2023-04-24T03:25:38;0.82;;;0.82;;
51020;SDS011;38907;45.562;8.856;2023-04-24T03:30:40;1.88;;;1.25;;
51020;SDS011;38907;45.562;8.856;2023-04-24T03:35:42;1.08;;;0.93;;
51020;SDS011;38907;45.562;8.856;2023-04-24T03:40:46;1.63;;;1.20;;
51020;SDS011;38907;45.562;8.856;2023-04-24T03:45:48;1.20;;;1.10;;
51020;SDS011;38907;45.562;8.856;2023-04-24T03:50:50;1.10;;;1.00;;
51020;SDS011;38907;45.562;8.856;2023-04-24T03:55:53;1.10;;;1.00;;
51020;SDS011;38907;45.562;8.856;2023-04-24T04:05:58;2.72;;;1.00;;
51020;SDS011;38907;45.562;8.856;2023-04-24T04:11:02;1.95;;;1.15;;
51020;SDS011;38907;45.562;8.856;2023-04-24T04:16:04;1.10;;;1.00;;
51020;SDS011;38907;45.562;8.856;2023-04-24T04:21:06;0.70;;;0.70;;
51020;SDS011;38907;45.562;8.856;2023-04-24T04:26:10;2.42;;;1.00;;
51020;SDS011;38907;45.562;8.856;2023-04-24T04:31:13;0.80;;;0.63;;
51020;SDS011;38907;45.562;8.856;2023-04-24T04:36:15;5.63;;;0.88;;
51020;SDS011;38907;45.562;8.856;2023-04-24T04:41:18;4.90;;;1.33;;
51020;SDS011;38907;45.562;8.856;2023-04-24T04:46:20;4.38;;;1.20;;
51020;SDS011;38907;45.562;8.856;2023-04-24T04:51:26;1.42;;;0.77;;
51020;SDS011;38907;45.562;8.856;2023-04-24T04:56:29;1.05;;;0.90;;
51020;SDS011;38907;45.562;8.856;2023-04-24T05:01:31;1.52;;;1.00;;
51020;SDS011;38907;45.562;8.856;2023-04-24T05:06:32;1.02;;;0.85;;
51020;SDS011;38907;45.562;8.856;2023-04-24T05:11:36;0.75;;;0.75;;
51020;SDS011;38907;45.562;8.856;2023-04-24T05:16:38;0.93;;;0.82;;
51020;SDS011;38907;45.562;8.856;2023-04-24T05:21:40;1.02;;;0.77;;
51020;SDS011;38907;45.562;8.856;2023-04-24T05:26:43;1.30;;;0.93;;
51020;SDS011;38907;45.562;8.856;2023-04-24T05:36:47;1.33;;;1.17;;
51020;SDS011;38907;45.562;8.856;2023-04-24T05:41:52;2.15;;;1.00;;
51020;SDS011;38907;45.562;8.856;2023-04-24T05:46:53;1.77;;;1.20;;
51020;SDS011;38907;45.562;8.856;2023-04-24T05:51:56;2.43;;;1.00;;
51020;SDS011;38907;45.562;8.856;2023-04-24T05:57:00;2.80;;;1.70;;
51020;SDS011;38907;45.562;8.856;2023-04-24T06:02:04;3.17;;;1.38;;
51020;SDS011;38907;45.562;8.856;2023-04-24T06:07:07;1.73;;;1.10;;
51020;SDS011;38907;45.562;8.856;2023-04-24T06:12:10;1.58;;;1.33;;
51020;SDS011;38907;45.562;8.856;2023-04-24T06:17:12;1.52;;;1.38;;
51020;SDS011;38907;45.562;8.856;2023-04-24T06:22:14;2.00;;;1.25;;
51020;SDS011;38907;45.562;8.856;2023-04-24T06:27:17;2.08;;;1.50;;
51020;SDS011;38907;45.562;8.856;2023-04-24T06:32:19;1.52;;;0.90;;
51020;SDS011;38907;45.562;8.856;2023-04-24T06:37:22;1.33;;;1.10;;
51020;SDS011;38907;45.562;8.856;2023-04-24T06:42:25;1.10;;;1.00;;
51020;SDS011;38907;45.562;8.856;2023-04-24T06:47:27;1.23;;;1.00;;
51020;SDS011;38907;45.562;8.856;2023-04-24T06:52:29;1.23;;;0.95;;
51020;SDS011;38907;45.562;8.856;2023-04-24T06:57:34;0.80;;;0.75;;
51020;SDS011;38907;45.562;8.856;2023-04-24T07:02:36;2.95;;;0.85;;
51020;SDS011;38907;45.562;8.856;2023-04-24T07:07:38;2.20;;;0.90;;
51020;SDS011;38907;45.562;8.856;2023-04-24T07:12:41;0.82;;;0.80;;
51020;SDS011;38907;45.562;8.856;2023-04-24T07:17:43;0.98;;;0.88;;
51020;SDS011;38907;45.562;8.856;2023-04-24T07:22:45;4.68;;;0.77;;
51020;SDS011;38907;45.562;8.856;2023-04-24T07:27:49;0.75;;;0.70;;
51020;SDS011;38907;45.562;8.856;2023-04-24T07:37:53;0.70;;;0.55;;
51020;SDS011;38907;45.562;8.856;2023-04-24T07:42:56;1.35;;;0.70;;
51020;SDS011;38907;45.562;8.856;2023-04-24T07:47:58;1.17;;;0.65;;
51020;SDS011;38907;45.562;8.856;2023-04-24T07:53:00;1.17;;;0.63;;
51020;SDS011;38907;45.562;8.856;2023-04-24T07:58:03;2.83;;;0.73;;
51020;SDS011;38907;45.562;8.856;2023-04-24T08:03:05;0.60;;;0.32;;
51020;SDS011;38907;45.562;8.856;2023-04-24T08:08:07;2.55;;;0.73;;
51020;SDS011;38907;45.562;8.856;2023-04-24T08:13:11;0.38;;;0.38;;
51020;SDS011;38907;45.562;8.856;2023-04-24T08:23:15;0.50;;;0.50;;
51020;SDS011;38907;45.562;8.856;2023-04-24T08:28:19;1.15;;;0.40;;
51020;SDS011;38907;45.562;8.856;2023-04-24T08:38:28;1.23;;;0.60;;
51020;SDS011;38907;45.562;8.856;2023-04-24T08:43:32;0.30;;;0.30;;
51020;SDS011;38907;45.562;8.856;2023-04-24T08:48:36;0.43;;;0.30;;
51020;SDS011;38907;45.562;8.856;2023-04-24T08:53:39;0.50;;;0.50;;
51020;SDS011;38907;45.562;8.856;2023-04-24T08:58:42;0.40;;;0.40;;
51020;SDS011;38907;45.562;8.856;2023-04-24T09:03:45;0.63;;;0.40;;
51020;SDS011;38907;45.562;8.856;2023-04-24T09:08:49;1.17;;;0.50;;
51020;SDS011;38907;45.562;8.856;2023-04-24T09:13:57;1.52;;;0.38;;
51020;SDS011;38907;45.562;8.856;2023-04-24T09:18:59;0.50;;;0.50;;
51020;SDS011;38907;45.562;8.856;2023-04-24T09:24:03;0.73;;;0.40;;
51020;SDS011;38907;45.562;8.856;2023-04-24T09:29:13;0.52;;;0.43;;
51020;SDS011;38907;45.562;8.856;2023-04-24T09:34:19;0.85;;;0.55;;
51020;SDS011;38907;45.562;8.856;2023-04-24T09:39:22;1.25;;;0.70;;
51020;SDS011;38907;45.562;8.856;2023-04-24T09:44:26;0.93;;;0.50;;
51020;SDS011;38907;45.562;8.856;2023-04-24T09:49:29;1.23;;;0.70;;
51020;SDS011;38907;45.562;8.856;2023-04-24T09:54:33;1.42;;;0.90;;
51020;SDS011;38907;45.562;8.856;2023-04-24T09:59:39;1.45;;;0.82;;
51020;SDS011;38907;45.562;8.856;2023-04-24T10:04:53;2.80;;;0.93;;
51020;SDS011;38907;45.562;8.856;2023-04-24T10:09:56;2.63;;;1.00;;
51020;SDS011;38907;45.562;8.856;2023-04-24T10:15:00;2.03;;;0.80;;
51020;SDS011;38907;45.562;8.856;2023-04-24T10:20:03;1.05;;;0.85;;
51020;SDS011;38907;45.562;8.856;2023-04-24T10:25:09;2.05;;;0.75;;
51020;SDS011;38907;45.562;8.856;2023-04-24T10:30:14;1.77;;;0.60;;
51020;SDS011;38907;45.562;8.856;2023-04-24T10:35:16;0.68;;;0.68;;
51020;SDS011;38907;45.562;8.856;2023-04-24T10:45:29;1.88;;;0.73;;
51020;SDS011;38907;45.562;8.856;2023-04-24T10:50:41;3.45;;;1.08;;
51020;SDS011;38907;45.562;8.856;2023-04-24T10:55:45;1.35;;;1.05;;
51020;SDS011;38907;45.562;8.856;2023-04-24T11:00:56;3.17;;;2.00;;
51020;SDS011;38907;45.562;8.856;2023-04-24T11:05:59;2.10;;;1.75;;
51020;SDS011;38907;45.562;8.856;2023-04-24T11:11:03;6.25;;;5.10;;
51020;SDS011;38907;45.562;8.856;2023-04-24T11:16:14;8.00;;;6.43;;
51020;SDS011;38907;45.562;8.856;2023-04-24T11:21:21;12.10;;;8.10;;
51020;SDS011;38907;45.562;8.856;2023-04-24T11:26:24;7.53;;;5.05;;
51020;SDS011;38907;45.562;8.856;2023-04-24T11:31:40;4.35;;;3.25;;
51020;SDS011;38907;45.562;8.856;2023-04-24T11:36:42;4.22;;;2.90;;
51020;SDS011;38907;45.562;8.856;2023-04-24T11:41:47;5.57;;;3.92;;
51020;SDS011;38907;45.562;8.856;2023-04-24T11:46:51;9.13;;;3.53;;
51020;SDS011;38907;45.562;8.856;2023-04-24T11:51:54;7.47;;;3.63;;
51020;SDS011;38907;45.562;8.856;2023-04-24T11:56:56;5.15;;;3.60;;
51020;SDS011;38907;45.562;8.856;2023-04-24T12:02:00;5.38;;;3.33;;
51020;SDS011;38907;45.562;8.856;2023-04-24T12:07:02;4.53;;;3.88;;
51020;SDS011;38907;45.562;8.856;2023-04-24T12:12:06;4.43;;;2.55;;
51020;SDS011;38907;45.562;8.856;2023-04-24T12:17:09;3.67;;;2.92;;
51020;SDS011;38907;45.562;8.856;2023-04-24T12:22:11;3.03;;;2.60;;
51020;SDS011;38907;45.562;8.856;2023-04-24T12:27:18;2.75;;;2.20;;
51020;SDS011;38907;45.562;8.856;2023-04-24T12:32:22;2.45;;;1.80;;
51020;SDS011;38907;45.562;8.856;2023-04-24T12:37:25;2.05;;;1.00;;
51020;SDS011;38907;45.562;8.856;2023-04-24T12:42:33;1.52;;;1.20;;
51020;SDS011;38907;45.562;8.856;2023-04-24T12:47:37;0.85;;;0.80;;
51020;SDS011;38907;45.562;8.856;2023-04-24T12:52:40;0.50;;;0.50;;
51020;SDS011;38907;45.562;8.856;2023-04-24T12:57:43;1.30;;;0.60;;
51020;SDS011;38907;45.562;8.856;2023-04-24T13:02:46;1.07;;;0.60;;
51020;SDS011;38907;45.562;8.856;2023-04-24T13:07:48;0.73;;;0.40;;
51020;SDS011;38907;45.562;8.856;2023-04-24T13:12:50;1.97;;;0.60;;
51020;SDS011;38907;45.562;8.856;2023-04-24T13:17:53;0.30;;;0.30;;
51020;SDS011;38907;45.562;8.856;2023-04-24T13:22:55;0.43;;;0.40;;
51020;SDS011;38907;45.562;8.856;2023-04-24T13:27:57;1.27;;;0.40;;
51020;SDS011;38907;45.562;8.856;2023-04-24T13:33:00;0.83;;;0.50;;
51020;SDS011;38907;45.562;8.856;2023-04-24T13:38:02;0.63;;;0.30;;
51020;SDS011;38907;45.562;8.856;2023-04-24T13:43:06;3.58;;;0.47;;
51020;SDS011;38907;45.562;8.856;2023-04-24T13:48:10;0.95;;;0.30;;
51020;SDS011;38907;45.562;8.856;2023-04-24T13:53:15;0.32;;;0.30;;
51020;SDS011;38907;45.562;8.856;2023-04-24T13:58:17;0.40;;;0.30;;
51020;SDS011;38907;45.562;8.856;2023-04-24T14:03:20;0.40;;;0.40;;
51020;SDS011;38907;45.562;8.856;2023-04-24T14:08:22;0.45;;;0.40;;
51020;SDS011;38907;45.562;8.856;2023-04-24T14:13:25;1.25;;;0.60;;
51020;SDS011;38907;45.562;8.856;2023-04-24T14:23:30;0.30;;;0.30;;
51020;SDS011;38907;45.562;8.856;2023-04-24T14:28:32;0.50;;;0.40;;
51020;SDS011;38907;45.562;8.856;2023-04-24T14:33:35;0.30;;;0.30;;
51020;SDS011;38907;45.562;8.856;2023-04-24T14:38:37;0.20;;;0.20;;
51020;SDS011;38907;45.562;8.856;2023-04-24T14:43:39;0.57;;;0.40;;
51020;SDS011;38907;45.562;8.856;2023-04-24T14:48:43;0.35;;;0.35;;
51020;SDS011;38907;45.562;8.856;2023-04-24T14:53:45;0.32;;;0.30;;
51020;SDS011;38907;45.562;8.856;2023-04-24T14:58:47;0.30;;;0.20;;
51020;SDS011;38907;45.562;8.856;2023-04-24T15:03:51;0.65;;;0.38;;
51020;SDS011;38907;45.562;8.856;2023-04-24T15:08:53;2.33;;;0.22;;
51020;SDS011;38907;45.562;8.856;2023-04-24T15:13:55;0.30;;;0.30;;
51020;SDS011;38907;45.562;8.856;2023-04-24T15:18:58;0.28;;;0.28;;
51020;SDS011;38907;45.562;8.856;2023-04-24T15:24:00;0.30;;;0.30;;
51020;SDS011;38907;45.562;8.856;2023-04-24T15:29:02;0.93;;;0.40;;
51020;SDS011;38907;45.562;8.856;2023-04-24T15:34:05;0.63;;;0.30;;
51020;SDS011;38907;45.562;8.856;2023-04-24T15:39:08;0.47;;;0.30;;
51020;SDS011;38907;45.562;8.856;2023-04-24T15:44:10;0.30;;;0.30;;
51020;SDS011;38907;45.562;8.856;2023-04-24T15:49:13;0.70;;;0.40;;
51020;SDS011;38907;45.562;8.856;2023-04-24T15:54:15;0.30;;;0.30;;
51020;SDS011;38907;45.562;8.856;2023-04-24T15:59:17;0.33;;;0.20;;
51020;SDS011;38907;45.562;8.856;2023-04-24T16:04:21;0.40;;;0.38;;
51020;SDS011;38907;45.562;8.856;2023-04-24T16:09:23;0.57;;;0.30;;
51020;SDS011;38907;45.562;8.856;2023-04-24T16:14:25;1.85;;;0.50;;
51020;SDS011;38907;45.562;8.856;2023-04-24T16:19:29;0.73;;;0.50;;
51020;SDS011;38907;45.562;8.856;2023-04-24T16:24:32;0.40;;;0.30;;
51020;SDS011;38907;45.562;8.856;2023-04-24T16:34:38;0.55;;;0.40;;
51020;SDS011;38907;45.562;8.856;2023-04-24T16:39:40;0.40;;;0.40;;
51020;SDS011;38907;45.562;8.856;2023-04-24T16:44:44;0.35;;;0.30;;
51020;SDS011;38907;45.562;8.856;2023-04-24T16:49:49;0.60;;;0.50;;
51020;SDS011;38907;45.562;8.856;2023-04-24T16:54:50;0.40;;;0.38;;
51020;SDS011;38907;45.562;8.856;2023-04-24T16:59:52;0.80;;;0.40;;
51020;SDS011;38907;45.562;8.856;2023-04-24T17:04:56;0.53;;;0.50;;
51020;SDS011;38907;45.562;8.856;2023-04-24T17:09:57;0.40;;;0.40;;
51020;SDS011;38907;45.562;8.856;2023-04-24T17:15:00;0.60;;;0.47;;
51020;SDS011;38907;45.562;8.856;2023-04-24T17:20:03;4.70;;;0.40;;
51020;SDS011;38907;45.562;8.856;2023-04-24T17:25:06;1.05;;;0.50;;
51020;SDS011;38907;45.562;8.856;2023-04-24T17:30:08;0.88;;;0.50;;
51020;SDS011;38907;45.562;8.856;2023-04-24T17:35:12;0.50;;;0.50;;
51020;SDS011;38907;45.562;8.856;2023-04-24T17:40:14;2.85;;;1.35;;
51020;SDS011;38907;45.562;8.856;2023-04-24T17:45:16;3.60;;;1.50;;
51020;SDS011;38907;45.562;8.856;2023-04-24T17:50:19;1.15;;;0.90;;
51020;SDS011;38907;45.562;8.856;2023-04-24T17:55:21;1.98;;;0.70;;
51020;SDS011;38907;45.562;8.856;2023-04-24T18:00:24;0.88;;;0.60;;
51020;SDS011;38907;45.562;8.856;2023-04-24T18:05:27;1.23;;;0.70;;
51020;SDS011;38907;45.562;8.856;2023-04-24T18:10:30;3.42;;;0.60;;
51020;SDS011;38907;45.562;8.856;2023-04-24T18:15:35;2.55;;;0.60;;
51020;SDS011;38907;45.562;8.856;2023-04-24T18:20:42;0.63;;;0.60;;
51020;SDS011;38907;45.562;8.856;2023-04-24T18:25:44;1.13;;;0.68;;
51020;SDS011;38907;45.562;8.856;2023-04-24T18:30:46;1.63;;;1.00;;
51020;SDS011;38907;45.562;8.856;2023-04-24T18:35:49;3.25;;;0.95;;
51020;SDS011;38907;45.562;8.856;2023-04-24T18:40:51;1.00;;;0.90;;
51020;SDS011;38907;45.562;8.856;2023-04-24T18:45:53;6.72;;;3.42;;
51020;SDS011;38907;45.562;8.856;2023-04-24T18:50:56;27.45;;;13.07;;
51020;SDS011;38907;45.562;8.856;2023-04-24T18:55:58;14.55;;;8.05;;
51020;SDS011;38907;45.562;8.856;2023-04-24T19:01:00;5.72;;;2.20;;
51020;SDS011;38907;45.562;8.856;2023-04-24T19:06:04;3.65;;;1.52;;
51020;SDS011;38907;45.562;8.856;2023-04-24T19:11:05;1.40;;;1.20;;
51020;SDS011;38907;45.562;8.856;2023-04-24T19:16:08;3.10;;;1.90;;
51020;SDS011;38907;45.562;8.856;2023-04-24T19:21:11;3.78;;;2.03;;
51020;SDS011;38907;45.562;8.856;2023-04-24T19:26:13;1.90;;;1.70;;
51020;SDS011;38907;45.562;8.856;2023-04-24T19:31:15;4.93;;;1.20;;
51020;SDS011;38907;45.562;8.856;2023-04-24T19:36:20;0.73;;;0.70;;
51020;SDS011;38907;45.562;8.856;2023-04-24T19:41:23;1.48;;;0.90;;
51020;SDS011;38907;45.562;8.856;2023-04-24T19:46:24;1.70;;;0.90;;
51020;SDS011;38907;45.562;8.856;2023-04-24T19:51:28;10.85;;;1.00;;
51020;SDS011;38907;45.562;8.856;2023-04-24T19:56:31;1.60;;;1.20;;
51020;SDS011;38907;45.562;8.856;2023-04-24T20:01:33;1.55;;;1.20;;
51020;SDS011;38907;45.562;8.856;2023-04-24T20:06:36;1.63;;;1.08;;
51020;SDS011;38907;45.562;8.856;2023-04-24T20:11:38;4.68;;;1.30;;
51020;SDS011;38907;45.562;8.856;2023-04-24T20:16:40;3.17;;;1.60;;
51020;SDS011;38907;45.562;8.856;2023-04-24T20:21:43;1.42;;;1.13;;
51020;SDS011;38907;45.562;8.856;2023-04-24T20:26:45;1.65;;;1.20;;
51020;SDS011;38907;45.562;8.856;2023-04-24T20:31:47;2.17;;;1.05;;
51020;SDS011;38907;45.562;8.856;2023-04-24T20:36:50;1.67;;;1.00;;
51020;SDS011;38907;45.562;8.856;2023-04-24T20:41:55;1.48;;;1.10;;
51020;SDS011;38907;45.562;8.856;2023-04-24T20:46:57;4.27;;;1.30;;
51020;SDS011;38907;45.562;8.856;2023-04-24T20:52:01;1.88;;;1.13;;
51020;SDS011;38907;45.562;8.856;2023-04-24T20:57:03;3.35;;;1.25;;
51020;SDS011;38907;45.562;8.856;2023-04-24T21:02:05;1.03;;;0.80;;
51020;SDS011;38907;45.562;8.856;2023-04-24T21:07:08;1.50;;;1.10;;
51020;SDS011;38907;45.562;8.856;2023-04-24T21:12:12;1.63;;;1.10;;
51020;SDS011;38907;45.562;8.856;2023-04-24T21:17:14;2.08;;;1.08;;
51020;SDS011;38907;45.562;8.856;2023-04-24T21:22:17;1.05;;;0.88;;
51020;SDS011;38907;45.562;8.856;2023-04-24T21:27:19;2.00;;;1.13;;
51020;SDS011;38907;45.562;8.856;2023-04-24T21:32:21;2.17;;;1.00;;
51020;SDS011;38907;45.562;8.856;2023-04-24T21:37:24;1.67;;;1.00;;
51020;SDS011;38907;45.562;8.856;2023-04-24T21:42:26;2.05;;;0.90;;
51020;SDS011;38907;45.562;8.856;2023-04-24T21:47:28;1.73;;;0.98;;
51020;SDS011;38907;45.562;8.856;2023-04-24T21:52:32;2.67;;;1.33;;
51020;SDS011;38907;45.562;8.856;2023-04-24T22:02:36;2.08;;;0.90;;
51020;SDS011;38907;45.562;8.856;2023-04-24T22:07:40;3.37;;;0.80;;
51020;SDS011;38907;45.562;8.856;2023-04-24T22:12:45;1.33;;;0.90;;
51020;SDS011;38907;45.562;8.856;2023-04-24T22:17:47;1.77;;;0.98;;
51020;SDS011;38907;45.562;8.856;2023-04-24T22:22:53;2.58;;;1.90;;
51020;SDS011;38907;45.562;8.856;2023-04-24T22:27:54;6.05;;;2.92;;
51020;SDS011;38907;45.562;8.856;2023-04-24T22:32:56;3.08;;;2.28;;
51020;SDS011;38907;45.562;8.856;2023-04-24T22:38:00;5.38;;;2.95;;
51020;SDS011;38907;45.562;8.856;2023-04-24T22:43:02;4.68;;;3.72;;
51020;SDS011;38907;45.562;8.856;2023-04-24T22:48:04;7.68;;;4.28;;
51020;SDS011;38907;45.562;8.856;2023-04-24T22:53:07;5.50;;;4.10;;
51020;SDS011;38907;45.562;8.856;2023-04-24T22:58:09;6.15;;;4.60;;
51020;SDS011;38907;45.562;8.856;2023-04-24T23:03:11;6.03;;;4.70;;
51020;SDS011;38907;45.562;8.856;2023-04-24T23:08:15;6.93;;;4.37;;
51020;SDS011;38907;45.562;8.856;2023-04-24T23:13:17;7.13;;;4.57;;
51020;SDS011;38907;45.562;8.856;2023-04-24T23:18:19;8.83;;;4.80;;
51020;SDS011;38907;45.562;8.856;2023-04-24T23:23:22;7.28;;;4.90;;
51020;SDS011;38907;45.562;8.856;2023-04-24T23:28:25;6.13;;;4.82;;
51020;SDS011;38907;45.562;8.856;2023-04-24T23:33:27;8.57;;;4.22;;
51020;SDS011;38907;45.562;8.856;2023-04-24T23:38:30;6.30;;;3.53;;
51020;SDS011;38907;45.562;8.856;2023-04-24T23:43:32;5.18;;;3.25;;
51020;SDS011;38907;45.562;8.856;2023-04-24T23:48:34;4.47;;;2.95;;
51020;SDS011;38907;45.562;8.856;2023-04-24T23:53:37;4.00;;;2.80;;
51020;SDS011;38907;45.562;8.856;2023-04-24T23:58:39;8.15;;;3.33;;
